createdAt,value
2018-05-23T00:01:51.236Z,45.70
2018-05-23T00:04:17.936Z,42.60
2018-05-23T00:06:44.642Z,46.70
2018-05-23T00:09:11.327Z,45.80
2018-05-23T00:11:38.016Z,41.20
2018-05-23T00:14:04.720Z,39.73
2018-05-23T00:16:31.415Z,39.27
2018-05-23T00:18:58.247Z,43.20
2018-05-23T00:21:24.952Z,44.40
2018-05-23T00:23:51.635Z,49.67
2018-05-23T00:26:18.403Z,46.87
2018-05-23T00:28:45.108Z,49.67
2018-05-23T00:31:11.871Z,52.17
2018-05-23T00:33:38.589Z,48.37
2018-05-23T00:36:05.340Z,52.10
2018-05-23T00:38:32.028Z,49.77
2018-05-23T00:40:58.731Z,48.60
2018-05-23T00:43:25.431Z,45.70
2018-05-23T00:45:52.231Z,45.53
2018-05-23T00:48:18.899Z,47.33
2018-05-23T00:50:45.696Z,48.47
2018-05-23T00:53:12.384Z,51.40
2018-05-23T00:55:39.067Z,53.33
2018-05-23T00:58:05.772Z,50.70
2018-05-23T01:00:32.628Z,52.80
2018-05-23T01:02:59.323Z,52.40
2018-05-23T01:05:26.150Z,53.67
2018-05-23T01:07:52.840Z,53.97
2018-05-23T01:10:19.520Z,54.37
2018-05-23T01:12:46.206Z,55.07
2018-05-23T01:15:12.897Z,52.80
2018-05-23T01:17:39.577Z,48.73
2018-05-23T01:20:06.277Z,43.50
2018-05-23T01:22:33.020Z,43.83
2018-05-23T01:24:59.719Z,43.97
2018-05-23T01:27:26.399Z,48.10
2018-05-23T01:29:53.091Z,53.33
2018-05-23T01:32:19.843Z,53.10
2018-05-23T01:34:46.542Z,54.27
2018-05-23T01:37:13.248Z,52.73
2018-05-23T01:39:39.923Z,55.60
2018-05-23T01:42:06.635Z,53.60
2018-05-23T01:44:33.412Z,50.83
2018-05-23T01:47:00.135Z,45.83
2018-05-23T01:49:26.852Z,40.80
2018-05-23T01:51:53.564Z,43.77
2018-05-23T01:54:20.290Z,51.60
2018-05-23T01:56:47.015Z,52.40
2018-05-23T01:59:13.741Z,53.77
2018-05-23T02:01:40.440Z,55.70
2018-05-23T02:04:07.123Z,55.20
2018-05-23T02:06:33.803Z,56.30
2018-05-23T02:09:00.511Z,56.00
2018-05-23T02:11:27.359Z,48.97
2018-05-23T02:13:54.067Z,54.77
2018-05-23T02:16:20.757Z,56.90
2018-05-23T02:18:47.463Z,54.60
2018-05-23T02:21:14.152Z,56.73
2018-05-23T02:23:40.851Z,38.90
2018-05-23T02:26:07.527Z,38.63
2018-05-23T02:28:34.239Z,37.37
2018-05-23T02:31:00.952Z,37.23
2018-05-23T02:33:27.648Z,42.87
2018-05-23T02:35:54.376Z,36.87
2018-05-23T02:38:21.103Z,38.07
2018-05-23T02:40:47.809Z,37.53
2018-05-23T02:43:14.534Z,33.60
2018-05-23T02:45:41.257Z,38.03
2018-05-23T02:48:07.952Z,36.30
2018-05-23T02:50:34.627Z,42.33
2018-05-23T02:53:01.328Z,41.83
2018-05-23T02:55:28.028Z,43.93
2018-05-23T02:57:54.704Z,47.27
2018-05-23T03:00:21.387Z,46.20
2018-05-23T03:02:48.221Z,47.83
2018-05-23T03:05:14.816Z,49.40
2018-05-23T03:07:41.524Z,49.60
2018-05-23T03:10:08.288Z,53.57
2018-05-23T03:12:34.987Z,42.00
2018-05-23T03:15:01.672Z,31.70
2018-05-23T03:17:28.371Z,32.67
2018-05-23T03:19:55.061Z,32.80
2018-05-23T03:22:21.763Z,38.50
2018-05-23T03:24:48.476Z,47.27
2018-05-23T03:27:15.147Z,36.10
2018-05-23T03:29:41.843Z,32.07
2018-05-23T03:32:08.519Z,41.53
2018-05-23T03:34:35.218Z,43.80
2018-05-23T03:37:01.987Z,50.27
2018-05-23T03:39:28.681Z,48.40
2018-05-23T03:41:55.395Z,49.37
2018-05-23T03:44:22.087Z,38.00
2018-05-23T03:46:48.808Z,29.50
2018-05-23T03:49:15.556Z,33.17
2018-05-23T03:51:42.252Z,34.27
2018-05-23T03:54:08.955Z,31.87
2018-05-23T03:56:35.651Z,31.30
2018-05-23T03:59:02.352Z,33.03
2018-05-23T04:01:35.850Z,33.73
2018-05-23T04:04:08.519Z,38.93
2018-05-23T04:06:40.960Z,39.47
2018-05-23T04:09:07.656Z,37.20
2018-05-23T04:11:34.332Z,37.60
2018-05-23T04:14:01.043Z,40.13
2018-05-23T04:16:27.737Z,43.47
2018-05-23T04:18:54.439Z,44.33
2018-05-23T04:21:21.142Z,42.47
2018-05-23T04:23:47.855Z,27.90
2018-05-23T04:26:14.609Z,29.30
2018-05-23T04:28:41.322Z,31.37
2018-05-23T04:31:08.063Z,32.63
2018-05-23T04:33:34.767Z,39.27
2018-05-23T04:36:01.485Z,39.47
2018-05-23T04:38:28.176Z,37.00
2018-05-23T04:40:54.881Z,41.90
2018-05-23T04:43:21.600Z,38.50
2018-05-23T04:45:48.295Z,38.07
2018-05-23T04:48:14.980Z,38.03
2018-05-23T04:50:41.707Z,41.77
2018-05-23T04:53:08.399Z,36.77
2018-05-23T04:55:35.135Z,38.40
2018-05-23T04:58:01.837Z,41.30
2018-05-23T05:00:28.519Z,42.50
2018-05-23T05:02:55.220Z,40.17
2018-05-23T05:05:21.934Z,42.93
2018-05-23T05:07:48.620Z,42.67
2018-05-23T05:10:15.349Z,39.83
2018-05-23T05:12:42.053Z,41.73
2018-05-23T05:15:08.740Z,40.80
2018-05-23T05:17:35.505Z,38.80
2018-05-23T05:20:02.201Z,38.43
2018-05-23T05:22:28.897Z,34.60
2018-05-23T05:24:55.590Z,37.00
2018-05-23T05:27:22.335Z,35.93
2018-05-23T05:29:49.028Z,33.80
2018-05-23T05:32:15.772Z,33.87
2018-05-23T05:34:42.447Z,35.33
2018-05-23T05:37:09.167Z,32.57
2018-05-23T05:39:35.869Z,32.30
2018-05-23T05:42:02.667Z,30.70
2018-05-23T05:44:29.379Z,31.77
2018-05-23T05:46:56.081Z,32.83
2018-05-23T05:49:22.797Z,30.80
2018-05-23T05:51:49.483Z,30.30
2018-05-23T05:54:16.180Z,32.57
2018-05-23T05:56:42.863Z,30.47
2018-05-23T05:59:09.575Z,29.50
2018-05-23T06:01:36.265Z,33.73
2018-05-23T06:04:02.948Z,32.27
2018-05-23T06:06:29.660Z,31.07
2018-05-23T06:08:56.417Z,28.53
2018-05-23T06:11:23.107Z,27.67
2018-05-23T06:13:49.864Z,29.57
2018-05-23T06:16:16.586Z,27.80
2018-05-23T06:18:43.284Z,30.13
2018-05-23T06:21:09.999Z,28.50
2018-05-23T06:23:36.699Z,28.10
2018-05-23T06:26:03.420Z,27.40
2018-05-23T06:28:30.341Z,27.87
2018-05-23T06:30:57.033Z,26.27
2018-05-23T06:33:23.735Z,29.60
2018-05-23T06:35:50.496Z,25.90
2018-05-23T06:38:17.212Z,27.03
2018-05-23T06:40:43.904Z,27.60
2018-05-23T06:43:10.620Z,26.27
2018-05-23T06:45:37.308Z,28.13
2018-05-23T06:48:04.015Z,27.63
2018-05-23T06:50:30.838Z,28.00
2018-05-23T06:52:57.553Z,28.27
2018-05-23T06:55:24.322Z,27.60
2018-05-23T06:57:51.064Z,27.47
2018-05-23T07:00:17.855Z,27.60
2018-05-23T07:02:44.759Z,31.23
2018-05-23T07:05:11.489Z,30.23
2018-05-23T07:07:38.187Z,33.03
2018-05-23T07:10:04.915Z,29.27
2018-05-23T07:12:31.603Z,27.50
2018-05-23T07:14:58.279Z,27.10
2018-05-23T07:17:25.044Z,29.20
2018-05-23T07:19:51.727Z,27.27
2018-05-23T07:22:18.428Z,29.20
2018-05-23T07:24:45.227Z,30.17
2018-05-23T07:27:11.924Z,28.73
2018-05-23T07:29:38.752Z,29.57
2018-05-23T07:32:05.471Z,28.80
2018-05-23T07:34:32.644Z,28.20
2018-05-23T07:36:59.324Z,28.40
2018-05-23T07:39:26.068Z,27.07
2018-05-23T07:41:52.755Z,27.10
2018-05-23T07:44:19.447Z,27.50
2018-05-23T07:46:46.131Z,28.20
2018-05-23T07:49:12.824Z,28.37
2018-05-23T07:51:39.533Z,28.07
2018-05-23T07:54:06.206Z,28.27
2018-05-23T07:56:32.913Z,29.60
2018-05-23T07:58:59.605Z,25.90
2018-05-23T08:01:26.316Z,27.90
2018-05-23T08:03:53.017Z,30.80
2018-05-23T08:06:19.715Z,29.23
2018-05-23T08:08:46.396Z,27.93
2018-05-23T08:11:13.104Z,28.97
2018-05-23T08:13:39.807Z,29.43
2018-05-23T08:16:06.511Z,28.47
2018-05-23T08:18:33.211Z,29.53
2018-05-23T08:20:59.919Z,28.30
2018-05-23T08:23:26.635Z,28.90
2018-05-23T08:25:53.391Z,30.07
2018-05-23T08:28:20.115Z,28.97
2018-05-23T08:30:46.804Z,30.83
2018-05-23T08:33:13.511Z,29.00
2018-05-23T08:35:40.228Z,29.23
2018-05-23T08:38:06.982Z,28.20
2018-05-23T08:40:33.671Z,29.37
2018-05-23T08:43:00.394Z,29.10
2018-05-23T08:45:27.140Z,29.47
2018-05-23T08:47:53.823Z,28.60
2018-05-23T08:50:20.551Z,29.47
2018-05-23T08:52:47.251Z,28.30
2018-05-23T08:55:13.990Z,27.07
2018-05-23T08:57:40.707Z,28.47
2018-05-23T09:00:07.415Z,29.07
2018-05-23T09:02:34.168Z,26.60
2018-05-23T09:05:01.002Z,26.87
2018-05-23T09:07:27.639Z,26.60
2018-05-23T09:09:54.347Z,25.97
2018-05-23T09:12:21.158Z,25.07
2018-05-23T09:14:47.756Z,26.37
2018-05-23T09:17:14.455Z,22.70
2018-05-23T09:19:41.263Z,23.37
2018-05-23T09:22:07.967Z,22.60
2018-05-23T09:24:34.839Z,21.20
2018-05-23T09:27:01.555Z,21.03
2018-05-23T09:29:28.411Z,22.07
2018-05-23T09:31:55.180Z,20.90
2018-05-23T09:34:22.016Z,16.83
2018-05-23T09:36:48.691Z,16.17
2018-05-23T09:39:15.613Z,15.70
2018-05-23T09:41:42.218Z,13.53
2018-05-23T09:44:08.923Z,14.23
2018-05-23T09:46:35.620Z,12.80
2018-05-23T09:49:02.335Z,12.73
2018-05-23T09:51:29.035Z,10.80
2018-05-23T09:53:55.752Z,12.57
2018-05-23T09:56:22.516Z,13.20
2018-05-23T09:58:49.354Z,12.00
2018-05-23T10:01:16.047Z,12.27
2018-05-23T10:03:42.803Z,11.97
2018-05-23T10:06:09.528Z,11.90
2018-05-23T10:08:36.288Z,12.17
2018-05-23T10:11:03.036Z,12.97
2018-05-23T10:13:29.708Z,12.70
2018-05-23T10:15:56.462Z,13.37
2018-05-23T10:18:23.134Z,12.53
2018-05-23T10:20:49.913Z,12.83
2018-05-23T10:23:16.616Z,13.60
2018-05-23T10:25:43.345Z,12.40
2018-05-23T10:28:10.032Z,11.80
2018-05-23T10:30:36.747Z,12.40
2018-05-23T10:33:03.464Z,12.70
2018-05-23T10:35:30.149Z,11.73
2018-05-23T10:37:56.961Z,12.80
2018-05-23T10:40:23.643Z,12.30
2018-05-23T10:42:50.340Z,10.60
2018-05-23T10:45:17.055Z,10.93
2018-05-23T10:47:43.841Z,9.23
2018-05-23T10:50:10.436Z,8.40
2018-05-23T10:52:37.143Z,8.17
2018-05-23T10:55:03.818Z,7.10
2018-05-23T10:57:30.508Z,7.20
2018-05-23T10:59:57.283Z,6.90
2018-05-23T11:02:23.978Z,6.40
2018-05-23T11:04:50.680Z,7.07
2018-05-23T11:07:17.428Z,6.13
2018-05-23T11:09:44.141Z,7.03
2018-05-23T11:12:10.815Z,7.43
2018-05-23T11:14:37.542Z,7.50
2018-05-23T11:17:04.288Z,6.70
2018-05-23T11:19:30.947Z,6.87
2018-05-23T11:21:57.681Z,7.00
2018-05-23T11:24:24.360Z,6.00
2018-05-23T11:26:51.059Z,4.50
2018-05-23T11:29:17.743Z,3.20
2018-05-23T11:31:44.539Z,3.00
2018-05-23T11:34:11.219Z,3.33
2018-05-23T11:36:37.906Z,2.90
2018-05-23T11:39:04.624Z,3.60
2018-05-23T11:41:31.324Z,3.70
2018-05-23T11:43:58.011Z,3.23
2018-05-23T11:46:24.750Z,3.30
2018-05-23T11:48:51.385Z,3.50
2018-05-23T11:51:18.059Z,3.87
2018-05-23T11:53:44.769Z,3.60
2018-05-23T11:56:11.452Z,3.73
2018-05-23T11:58:38.156Z,3.83
2018-05-23T12:01:04.856Z,4.00
2018-05-23T12:03:31.527Z,3.70
2018-05-23T12:05:58.249Z,4.07
2018-05-23T12:08:24.919Z,4.47
2018-05-23T12:10:51.623Z,3.90
2018-05-23T12:13:18.304Z,3.50
2018-05-23T12:15:44.997Z,3.70
2018-05-23T12:18:11.667Z,3.70
2018-05-23T12:20:38.378Z,4.10
2018-05-23T12:23:05.079Z,4.00
2018-05-23T12:25:32.005Z,4.00
2018-05-23T12:27:58.699Z,3.90
2018-05-23T12:30:25.372Z,4.37
2018-05-23T12:32:52.065Z,3.70
2018-05-23T12:35:18.741Z,4.27
2018-05-23T12:37:45.447Z,3.77
2018-05-23T12:40:12.195Z,4.03
2018-05-23T12:42:38.890Z,4.17
2018-05-23T12:45:05.664Z,4.00
2018-05-23T12:47:32.350Z,4.40
2018-05-23T12:49:59.079Z,4.00
2018-05-23T12:52:25.780Z,4.10
2018-05-23T12:54:53.355Z,4.10
2018-05-23T12:57:20.029Z,4.40
2018-05-23T12:59:46.807Z,4.30
2018-05-23T13:02:13.487Z,4.60
2018-05-23T13:04:40.209Z,4.27
2018-05-23T13:07:07.003Z,3.80
2018-05-23T13:09:33.675Z,5.23
2018-05-23T13:12:00.364Z,4.90
2018-05-23T13:14:27.205Z,5.37
2018-05-23T13:16:53.906Z,4.00
2018-05-23T13:19:20.579Z,4.40
2018-05-23T13:21:47.280Z,4.30
2018-05-23T13:24:13.956Z,4.93
2018-05-23T13:26:40.752Z,4.80
2018-05-23T13:29:07.427Z,6.13
2018-05-23T13:31:34.111Z,4.43
2018-05-23T13:34:00.796Z,4.77
2018-05-23T13:36:27.472Z,4.60
2018-05-23T13:38:54.219Z,5.37
2018-05-23T13:41:20.867Z,4.50
2018-05-23T13:43:47.565Z,5.53
2018-05-23T13:46:14.244Z,5.23
2018-05-23T13:48:40.936Z,5.10
2018-05-23T13:51:07.631Z,4.80
2018-05-23T13:53:34.335Z,5.13
2018-05-23T13:56:01.003Z,4.73
2018-05-23T13:58:27.823Z,5.40
2018-05-23T14:00:54.515Z,4.67
2018-05-23T14:03:21.210Z,4.47
2018-05-23T14:05:47.915Z,5.80
2018-05-23T14:08:14.594Z,4.97
2018-05-23T14:10:41.317Z,4.43
2018-05-23T14:13:08.007Z,4.87
2018-05-23T14:15:34.688Z,5.20
2018-05-23T14:18:01.399Z,4.50
2018-05-23T14:20:28.084Z,4.87
2018-05-23T14:22:54.944Z,4.63
2018-05-23T14:25:21.620Z,4.40
2018-05-23T14:27:48.480Z,5.13
2018-05-23T14:30:15.155Z,5.50
2018-05-23T14:32:41.857Z,5.20
2018-05-23T14:35:08.540Z,5.50
2018-05-23T14:37:35.235Z,5.47
2018-05-23T14:40:01.926Z,6.03
2018-05-23T14:42:28.623Z,6.10
2018-05-23T14:44:55.310Z,5.70
2018-05-23T14:47:21.993Z,6.43
2018-05-23T14:49:48.726Z,7.17
2018-05-23T14:52:15.476Z,7.20
2018-05-23T14:54:42.175Z,6.57
2018-05-23T14:57:08.847Z,7.07
2018-05-23T14:59:35.584Z,6.13
2018-05-23T15:02:02.279Z,7.20
2018-05-23T15:04:28.965Z,6.83
2018-05-23T15:06:55.667Z,8.33
2018-05-23T15:09:22.450Z,8.10
2018-05-23T15:11:49.149Z,6.67
2018-05-23T15:14:16.181Z,8.57
2018-05-23T15:16:42.827Z,7.00
2018-05-23T15:19:09.507Z,8.23
2018-05-23T15:21:36.197Z,6.97
2018-05-23T15:24:02.996Z,7.83
2018-05-23T15:26:29.781Z,6.77
2018-05-23T15:28:56.598Z,7.70
2018-05-23T15:31:23.340Z,7.47
2018-05-23T15:33:49.959Z,7.10
2018-05-23T15:36:16.659Z,8.00
2018-05-23T15:38:43.341Z,7.93
2018-05-23T15:41:10.048Z,8.97
2018-05-23T15:43:36.737Z,8.10
2018-05-23T15:46:03.705Z,8.40
2018-05-23T15:48:30.483Z,8.07
2018-05-23T15:50:57.179Z,8.53
2018-05-23T15:53:23.869Z,9.17
2018-05-23T15:55:50.589Z,8.00
2018-05-23T15:58:17.275Z,8.60
2018-05-23T16:00:43.968Z,7.90
2018-05-23T16:03:10.645Z,7.67
2018-05-23T16:05:37.494Z,8.60
2018-05-23T16:08:04.372Z,8.97
2018-05-23T16:10:31.089Z,8.40
2018-05-23T16:12:57.760Z,7.07
2018-05-23T16:15:24.445Z,8.00
2018-05-23T16:17:51.149Z,7.47
2018-05-23T16:20:17.848Z,6.47
2018-05-23T16:22:44.556Z,6.57
2018-05-23T16:25:11.227Z,6.37
2018-05-23T16:27:37.953Z,6.80
2018-05-23T16:30:04.628Z,5.77
2018-05-23T16:32:31.319Z,6.20
2018-05-23T16:34:58.024Z,6.00
2018-05-23T16:37:24.717Z,6.60
2018-05-23T16:39:51.419Z,6.37
2018-05-23T16:42:18.098Z,5.80
2018-05-23T16:44:44.803Z,7.20
2018-05-23T16:47:11.518Z,7.23
2018-05-23T16:49:38.224Z,6.13
2018-05-23T16:52:05.013Z,5.53
2018-05-23T16:54:31.639Z,6.80
2018-05-23T16:56:58.308Z,5.37
2018-05-23T16:59:25.047Z,5.93
2018-05-23T17:01:51.730Z,4.97
2018-05-23T17:04:18.420Z,5.20
2018-05-23T17:06:45.096Z,4.40
2018-05-23T17:09:11.811Z,4.80
2018-05-23T17:11:38.494Z,5.03
2018-05-23T17:14:05.193Z,4.67
2018-05-23T17:16:31.908Z,4.43
2018-05-23T17:18:58.623Z,4.50
2018-05-23T17:21:25.351Z,5.90
2018-05-23T17:23:52.028Z,4.27
2018-05-23T17:26:18.927Z,4.80
2018-05-23T17:28:45.600Z,4.53
2018-05-23T17:31:12.297Z,4.83
2018-05-23T17:33:38.972Z,4.53
2018-05-23T17:36:05.643Z,4.20
2018-05-23T17:38:32.394Z,4.73
2018-05-23T17:40:59.075Z,4.37
2018-05-23T17:43:25.881Z,4.67
2018-05-23T17:45:52.617Z,4.67
2018-05-23T17:48:19.295Z,3.50
2018-05-23T17:50:45.986Z,4.27
2018-05-23T17:53:12.710Z,4.40
2018-05-23T17:55:39.404Z,3.87
2018-05-23T17:58:06.069Z,5.00
2018-05-23T18:00:32.776Z,4.60
2018-05-23T18:02:59.450Z,4.80
2018-05-23T18:05:26.219Z,4.27
2018-05-23T18:07:52.913Z,4.60
2018-05-23T18:10:19.635Z,4.07
2018-05-23T18:12:46.356Z,4.13
2018-05-23T18:15:13.037Z,4.30
2018-05-23T18:17:39.836Z,4.00
2018-05-23T18:20:06.467Z,3.87
2018-05-23T18:22:33.188Z,4.33
2018-05-23T18:24:59.864Z,4.60
2018-05-23T18:27:26.585Z,4.60
2018-05-23T18:29:53.260Z,3.80
2018-05-23T18:32:20.152Z,5.80
2018-05-23T18:34:47.036Z,4.00
2018-05-23T18:37:13.776Z,4.70
2018-05-23T18:39:40.511Z,4.07
2018-05-23T18:42:07.211Z,4.00
2018-05-23T18:44:33.914Z,3.70
2018-05-23T18:47:00.621Z,4.83
2018-05-23T18:49:27.386Z,4.20
2018-05-23T18:51:54.083Z,4.27
2018-05-23T18:54:20.871Z,4.90
2018-05-23T18:56:47.528Z,3.93
2018-05-23T18:59:14.248Z,4.37
2018-05-23T19:01:40.973Z,4.67
2018-05-23T19:04:07.700Z,4.00
2018-05-23T19:06:34.375Z,4.30
2018-05-23T19:09:01.044Z,4.40
2018-05-23T19:11:27.744Z,4.27
2018-05-23T19:13:54.453Z,4.20
2018-05-23T19:16:21.133Z,4.40
2018-05-23T19:18:47.880Z,5.07
2018-05-23T19:21:14.576Z,4.77
2018-05-23T19:23:41.255Z,3.93
2018-05-23T19:26:07.986Z,3.37
2018-05-23T19:28:34.671Z,3.67
2018-05-23T19:31:01.352Z,4.63
2018-05-23T19:33:28.051Z,4.50
2018-05-23T19:35:54.732Z,4.30
2018-05-23T19:38:21.425Z,3.73
2018-05-23T19:40:48.074Z,3.60
2018-05-23T19:43:14.787Z,3.60
2018-05-23T19:45:41.452Z,3.93
2018-05-23T19:48:08.223Z,4.10
2018-05-23T19:50:34.941Z,3.60
2018-05-23T19:53:01.721Z,4.40
2018-05-23T19:55:28.347Z,3.97
2018-05-23T19:57:55.119Z,4.33
2018-05-23T20:00:21.832Z,4.23
2018-05-23T20:02:48.684Z,3.40
2018-05-23T20:05:15.392Z,3.40
2018-05-23T20:07:42.238Z,3.97
2018-05-23T20:10:11.066Z,4.50
2018-05-23T20:12:38.051Z,4.23
2018-05-23T20:15:04.722Z,4.90
2018-05-23T20:17:31.493Z,4.30
2018-05-23T20:19:58.191Z,3.73
2018-05-23T20:22:24.928Z,3.80
2018-05-23T20:24:52.807Z,3.40
2018-05-23T20:27:19.493Z,3.80
2018-05-23T20:29:46.304Z,4.23
2018-05-23T20:32:12.984Z,3.90
2018-05-23T20:34:39.690Z,4.37
2018-05-23T20:37:06.411Z,4.30
2018-05-23T20:39:33.108Z,3.63
2018-05-23T20:41:59.807Z,4.13
2018-05-23T20:44:26.542Z,4.97
2018-05-23T20:46:53.403Z,4.83
2018-05-23T20:49:20.131Z,4.40
2018-05-23T20:51:46.822Z,3.43
2018-05-23T20:54:13.502Z,4.87
2018-05-23T20:56:40.224Z,4.20
2018-05-23T20:59:07.086Z,4.37
2018-05-23T21:01:33.773Z,4.40
2018-05-23T21:04:00.467Z,4.73
2018-05-23T21:06:27.156Z,3.80
2018-05-23T21:08:53.876Z,4.70
2018-05-23T21:11:20.560Z,3.13
2018-05-23T21:13:47.271Z,4.80
2018-05-23T21:16:13.933Z,3.87
2018-05-23T21:18:40.844Z,4.73
2018-05-23T21:21:07.525Z,4.40
2018-05-23T21:23:34.231Z,4.17
2018-05-23T21:26:00.908Z,4.60
2018-05-23T21:28:27.581Z,4.70
2018-05-23T21:30:54.276Z,4.00
2018-05-23T21:33:20.960Z,4.23
2018-05-23T21:35:47.670Z,4.07
2018-05-23T21:38:14.362Z,4.17
2018-05-23T21:40:41.100Z,4.10
2018-05-23T21:43:07.795Z,3.70
2018-05-23T21:45:34.544Z,4.07
2018-05-23T21:48:01.227Z,4.40
2018-05-23T21:50:28.096Z,3.80
2018-05-23T21:52:54.788Z,5.23
2018-05-23T21:55:21.535Z,4.70
2018-05-23T21:57:48.286Z,5.20
2018-05-23T22:00:15.124Z,4.20
2018-05-23T22:02:41.805Z,4.17
2018-05-23T22:05:08.475Z,4.00
2018-05-23T22:07:35.147Z,4.33
2018-05-23T22:10:01.844Z,4.23
2018-05-23T22:12:28.524Z,4.17
2018-05-23T22:14:55.203Z,4.30
2018-05-23T22:17:21.958Z,4.73
2018-05-23T22:19:48.643Z,4.53
2018-05-23T22:22:15.407Z,4.10
2018-05-23T22:24:42.203Z,4.80
2018-05-23T22:27:08.970Z,4.03
2018-05-23T22:29:35.577Z,4.53
2018-05-23T22:32:02.298Z,3.43
2018-05-23T22:34:28.986Z,3.83
2018-05-23T22:36:55.667Z,4.40
2018-05-23T22:39:22.355Z,4.27
2018-05-23T22:41:49.198Z,4.03
2018-05-23T22:44:15.867Z,4.37
2018-05-23T22:46:42.754Z,4.20
2018-05-23T22:49:09.433Z,4.63
2018-05-23T22:51:36.266Z,4.73
2018-05-23T22:54:02.939Z,4.43
2018-05-23T22:56:29.671Z,4.10
2018-05-23T22:58:56.394Z,4.10
2018-05-23T23:01:23.072Z,4.30
2018-05-23T23:03:49.755Z,4.10
2018-05-23T23:06:16.573Z,4.77
2018-05-23T23:08:43.262Z,3.80
2018-05-23T23:11:09.929Z,4.57
2018-05-23T23:13:36.614Z,3.53
2018-05-23T23:16:03.451Z,3.80
2018-05-23T23:18:30.137Z,3.60
2018-05-23T23:20:56.827Z,5.00
2018-05-23T23:23:23.574Z,3.80
2018-05-23T23:25:50.496Z,4.07
2018-05-23T23:28:17.171Z,4.27
2018-05-23T23:30:44.011Z,4.30
2018-05-23T23:33:10.688Z,4.87
2018-05-23T23:35:37.396Z,4.57
2018-05-23T23:38:04.097Z,4.27
2018-05-23T23:40:30.792Z,4.30
2018-05-23T23:42:57.494Z,4.30
2018-05-23T23:45:24.313Z,4.00
2018-05-23T23:47:51.019Z,4.03
2018-05-23T23:50:17.692Z,4.40
2018-05-23T23:52:44.435Z,3.90
2018-05-23T23:55:11.120Z,3.87
2018-05-23T23:57:37.855Z,3.70
